Time;durP1;ratioP1;P1;durP2;ratioP2;P2;SDS_P1;SDS_P2;PMS_P1;PMS_P2;Temp;Humidity;BMP_temperature;BMP_pressure;BME280_temperature;BME280_humidity;BME280_pressure;Samples;Min_cycle;Max_cycle;Signal;HPM_P1;HPM_P2
2022/05/10 00:02:24;;;;;;;0.87;0.80;;;;;;;11.87;59.59;100298.59;5107430;28;20217;-80
2022/05/10 00:04:51;;;;;;;;;;;;;;;11.98;59.19;100325.81;5108192;28;20035;-79
2022/05/10 00:07:18;;;;;;;0.60;0.60;;;;;;;11.64;59.28;100310.28;5092826;28;19923;-80
2022/05/10 00:09:44;;;;;;;0.98;0.70;;;;;;;11.64;60.15;100320.84;5087561;28;20032;-79
2022/05/10 00:12:09;;;;;;;;;;;;;;;11.55;60.21;100313.88;5086429;28;20085;-80
2022/05/10 00:14:35;;;;;;;;;;;;;;;11.51;60.40;100319.19;5093849;28;20018;-80
2022/05/10 00:17:01;;;;;;;;;;;;;;;11.42;61.09;100318.41;5088409;28;19920;-80
2022/05/10 00:19:30;;;;;;;0.77;0.77;;;;;;;11.62;60.35;100320.88;5090167;28;19945;-80
2022/05/10 00:21:56;;;;;;;3.03;1.25;;;;;;;11.63;59.91;100303.22;5088601;28;20023;-80
2022/05/10 00:24:23;;;;;;;0.85;0.82;;;;;;;11.52;60.39;100297.19;5097660;28;20040;-80
2022/05/10 00:26:48;;;;;;;0.93;0.93;;;;;;;11.61;60.80;100305.88;5087441;28;20039;-80
2022/05/10 00:29:14;;;;;;;;;;;;;;;11.71;60.26;100319.00;5087426;28;20032;-80
2022/05/10 00:31:39;;;;;;;0.50;0.50;;;;;;;11.84;60.34;100325.94;5107411;28;19918;-81
2022/05/10 00:34:05;;;;;;;;;;;;;;;11.88;60.32;100309.16;5105814;28;20062;-81
2022/05/10 00:36:31;;;;;;;0.57;0.57;;;;;;;11.75;60.09;100268.75;5099393;28;19961;-81
2022/05/10 00:38:56;;;;;;;4.28;1.55;;;;;;;11.90;60.25;100288.00;5105850;28;20092;-81
2022/05/10 00:41:31;;;;;;;;;;;;;;;12.02;59.97;100310.78;5085954;28;20467;-80
2022/05/10 00:44:07;;;;;;;0.82;0.82;;;;;;;11.91;59.89;100309.13;5086261;28;19923;-81
2022/05/10 00:46:38;;;;;;;0.50;0.50;;;;;;;11.88;59.90;100279.19;5068868;28;20513;-80
2022/05/10 00:49:51;;;;;;;1.80;1.67;;;;;;;12.04;59.47;100295.81;5085021;28;20765;-80
2022/05/10 00:52:34;;;;;;;0.50;0.50;;;;;;;11.91;59.75;100295.91;5044051;28;20867;-81
2022/05/10 00:55:15;;;;;;;1.20;1.10;;;;;;;11.92;59.94;100312.63;5103669;28;20546;-81
2022/05/10 00:57:59;;;;;;;6.82;1.52;;;;;;;11.87;59.91;100310.03;5105426;28;20035;-80
2022/05/10 01:00:28;;;;;;;1.30;1.00;;;;;;;11.67;60.07;100278.53;5093976;28;20480;-79
2022/05/10 01:03:10;;;;;;;1.20;0.85;;;;;;;11.80;60.32;100303.97;5087124;28;20089;-80
2022/05/10 01:05:57;;;;;;;0.80;0.80;;;;;;;11.57;59.97;100301.53;5091507;28;20031;-80
2022/05/10 01:08:29;;;;;;;0.85;0.85;;;;;;;11.46;59.50;100276.97;5088298;28;20064;-80
2022/05/10 01:11:19;;;;;;;1.00;0.98;;;;;;;11.49;60.23;100302.50;5084970;28;20043;-80
2022/05/10 01:14:22;;;;;;;0.70;0.70;;;;;;;11.47;59.82;100299.88;5086304;28;20036;-80
2022/05/10 01:16:47;;;;;;;0.82;0.70;;;;;;;11.48;59.12;100299.00;5086745;28;20592;-80
2022/05/10 01:19:14;;;;;;;;;;;;;;;11.26;59.98;100295.63;5105454;28;20023;-80
2022/05/10 01:22:07;;;;;;;0.65;0.65;;;;;;;11.10;60.11;100271.13;5099487;28;19982;-81
2022/05/10 01:24:41;;;;;;;1.55;1.45;;;;;;;11.13;59.93;100300.16;5086803;28;20051;-81
2022/05/10 01:27:18;;;;;;;1.35;1.30;;;;;;;10.91;61.02;100294.16;5086032;28;20777;-80
2022/05/10 01:30:02;;;;;;;1.75;1.65;;;;;;;10.96;60.91;100292.34;5098930;28;20028;-80
2022/05/10 01:35:24;;;;;;;0.63;0.55;;;;;;;10.73;61.11;100274.03;5089395;28;20092;-80
2022/05/10 01:37:55;;;;;;;1.00;1.00;;;;;;;10.88;61.28;100289.75;5086408;28;20071;-80
2022/05/10 01:40:39;;;;;;;2.67;1.58;;;;;;;10.72;61.12;100259.06;5088803;28;20058;-80
2022/05/10 01:43:13;;;;;;;1.48;1.42;;;;;;;10.81;61.94;100285.41;5086063;28;20075;-80
2022/05/10 01:46:00;;;;;;;0.80;0.80;;;;;;;10.90;61.67;100277.41;5087429;28;20036;-80
2022/05/10 01:48:26;;;;;;;1.48;0.73;;;;;;;10.72;61.85;100256.44;5070836;28;20417;-80
2022/05/10 01:51:07;;;;;;;1.45;1.05;;;;;;;10.71;62.03;100268.75;5107685;28;20035;-80
2022/05/10 01:53:37;;;;;;;2.80;1.45;;;;;;;10.49;62.40;100251.34;5110214;28;20090;-80
2022/05/10 01:56:02;;;;;;;0.75;0.75;;;;;;;10.74;62.54;100291.63;5095808;28;20051;-80
2022/05/10 01:58:30;;;;;;;;;;;;;;;10.75;61.88;100283.69;5090256;28;20032;-80
2022/05/10 02:01:18;;;;;;;1.50;1.33;;;;;;;10.80;62.03;100285.41;5107423;28;19940;-80
2022/05/10 02:04:23;;;;;;;1.58;1.48;;;;;;;10.85;62.06;100292.41;5109372;28;20067;-81
2022/05/10 02:06:58;;;;;;;0.80;0.80;;;;;;;10.78;62.01;100281.91;5046307;28;20036;-79
2022/05/10 02:09:33;;;;;;;0.80;0.80;;;;;;;10.79;61.41;100273.13;5066535;28;20048;-79
2022/05/10 02:12:11;;;;;;;1.80;1.70;;;;;;;10.86;62.04;100290.66;5088643;28;20028;-79
2022/05/10 02:14:50;;;;;;;1.80;1.70;;;;;;;10.63;61.84;100249.47;5093232;28;20910;-79
2022/05/10 02:17:37;;;;;;;0.85;0.80;;;;;;;10.84;62.30;100292.44;5088932;28;20047;-79
2022/05/10 02:20:23;;;;;;;1.35;1.25;;;;;;;10.82;61.99;100284.53;5082069;28;20489;-79
2022/05/10 02:23:04;;;;;;;0.50;0.50;;;;;;;10.70;62.67;100289.88;5089329;28;20028;-79
2022/05/10 02:25:34;;;;;;;1.08;1.02;;;;;;;10.61;62.75;100271.47;5088970;28;20032;-79
2022/05/10 02:28:14;;;;;;;1.35;1.17;;;;;;;10.68;62.50;100283.75;5089664;28;20112;-79
2022/05/10 02:30:40;;;;;;;0.82;0.82;;;;;;;10.48;62.65;100253.06;5105305;28;20068;-79
2022/05/10 02:33:07;;;;;;;;;;;;;;;10.63;62.56;100277.59;5090708;28;20036;-79
2022/05/10 02:35:54;;;;;;;0.80;0.80;;;;;;;10.34;63.08;100253.16;5073745;28;20369;-79
2022/05/10 02:38:24;;;;;;;1.90;1.20;;;;;;;10.54;63.11;100275.91;5109410;28;20854;-79
2022/05/10 02:40:52;;;;;;;0.90;0.90;;;;;;;10.29;63.12;100239.09;5070515;28;20040;-79
2022/05/10 02:43:33;;;;;;;0.63;0.63;;;;;;;10.38;63.63;100275.13;5091486;28;20112;-79
2022/05/10 02:45:59;;;;;;;0.75;0.60;;;;;;;10.39;63.39;100292.69;5089173;28;20597;-79
2022/05/10 02:48:26;;;;;;;;;;;;;;;10.49;63.05;100283.84;5088757;28;20421;-79
2022/05/10 02:50:52;;;;;;;1.70;1.60;;;;;;;10.29;63.53;100251.41;5088074;28;20112;-79
2022/05/10 02:53:17;;;;;;;;;;;;;;;10.48;63.40;100278.59;5091402;28;20040;-79
2022/05/10 02:55:47;;;;;;;;;;;;;;;10.23;63.84;100281.31;5094241;28;19920;-80
2022/05/10 02:58:24;;;;;;;0.50;0.50;;;;;;;10.15;63.96;100265.50;5087258;28;19934;-80
2022/05/10 03:00:53;;;;;;;0.60;0.60;;;;;;;10.11;64.22;100268.16;5091916;28;20054;-80
2022/05/10 03:03:23;;;;;;;1.17;0.80;;;;;;;10.07;63.29;100255.88;5107799;28;20031;-79
2022/05/10 03:05:49;;;;;;;1.60;1.50;;;;;;;9.75;64.73;100230.53;5098140;28;20046;-80
2022/05/10 03:08:14;;;;;;;;;;;;;;;9.80;65.16;100273.53;5091883;28;20032;-79
2022/05/10 03:10:39;;;;;;;;;;;;;;;9.95;65.05;100273.50;5107017;28;20000;-79
2022/05/10 03:13:05;;;;;;;1.30;1.20;;;;;;;9.62;65.33;100272.72;5102988;28;19969;-79
2022/05/10 03:15:30;;;;;;;;;;;;;;;9.45;65.70;100266.56;5095918;28;20105;-79
2022/05/10 03:17:56;;;;;;;;;;;;;;;9.31;66.51;100275.38;5088426;28;19923;-79
2022/05/10 03:20:22;;;;;;;1.27;0.93;;;;;;;9.48;65.51;100249.03;5087763;28;19934;-79
2022/05/10 03:22:47;;;;;;;;;;;;;;;9.60;65.71;100270.94;5104297;28;20039;-80
2022/05/10 03:25:13;;;;;;;0.60;0.60;;;;;;;9.34;66.10;100235.00;5101223;28;19920;-79
2022/05/10 03:27:38;;;;;;;;;;;;;;;9.44;67.48;100291.19;5088614;28;20093;-79
2022/05/10 03:30:04;;;;;;;;;;;;;;;9.62;66.66;100283.25;5088575;28;20007;-78
2022/05/10 03:32:30;;;;;;;;;;;;;;;9.78;66.42;100277.94;5088822;28;20015;-78
2022/05/10 03:34:56;;;;;;;1.27;1.02;;;;;;;9.68;66.90;100245.47;5087992;28;20011;-79
2022/05/10 03:37:23;;;;;;;1.20;1.15;;;;;;;10.01;66.43;100284.03;5088137;28;20035;-79
2022/05/10 03:39:49;;;;;;;2.10;1.88;;;;;;;10.01;65.95;100262.94;5087560;28;20071;-79
2022/05/10 03:42:14;;;;;;;;;;;;;;;10.22;66.09;100276.91;5092190;28;20108;-79
2022/05/10 03:44:40;;;;;;;2.22;1.55;;;;;;;10.18;65.64;100268.13;5106663;28;19996;-79
2022/05/10 03:47:07;;;;;;;;;;;;;;;10.26;65.83;100281.28;5088472;28;20583;-79
2022/05/10 03:49:33;;;;;;;3.20;0.88;;;;;;;10.19;65.71;100253.19;5087531;28;19969;-77
2022/05/10 03:51:58;;;;;;;;;;;;;;;10.34;65.83;100286.56;5087899;28;20036;-79
2022/05/10 03:54:24;;;;;;;0.88;0.88;;;;;;;10.23;66.26;100256.72;5106499;28;19919;-79
2022/05/10 03:56:50;;;;;;;;;;;;;;;10.52;66.11;100288.25;5089822;28;20032;-79
2022/05/10 03:59:19;;;;;;;9.57;2.03;;;;;;;10.54;65.91;100268.00;5087657;28;19968;-79
2022/05/10 04:01:45;;;;;;;17.35;2.47;;;;;;;10.82;65.02;100270.47;5086904;28;20448;-78
2022/05/10 04:04:10;;;;;;;;;;;;;;;10.91;64.22;100294.16;5087477;28;20103;-79
2022/05/10 04:06:36;;;;;;;1.63;1.52;;;;;;;10.92;63.89;100269.50;5086371;28;19960;-79
2022/05/10 04:09:02;;;;;;;;;;;;;;;11.29;62.98;100304.44;5094675;28;20069;-79
2022/05/10 04:11:27;;;;;;;0.50;0.50;;;;;;;11.32;61.87;100305.28;5086685;28;19916;-81
2022/05/10 04:13:53;;;;;;;;;;;;;;;11.30;62.58;100307.94;5086669;28;20753;-84
2022/05/10 04:16:18;;;;;;;;;;;;;;;11.34;63.08;100299.09;5069546;28;19922;-80
2022/05/10 04:18:43;;;;;;;0.88;0.70;;;;;;;11.72;62.42;100292.56;5086815;28;19949;-81
2022/05/10 04:21:09;;;;;;;;;;;;;;;11.95;61.66;100302.94;5096868;28;20035;-80
2022/05/10 04:23:35;;;;;;;;;;;;;;;12.06;60.85;100305.47;5106901;28;20010;-80
2022/05/10 04:26:06;;;;;;;0.70;0.70;;;;;;;11.71;61.85;100298.75;5106463;28;20286;-80
2022/05/10 04:28:32;;;;;;;1.75;1.60;;;;;;;11.79;62.21;100299.56;5100326;28;20539;-80
2022/05/10 04:30:58;;;;;;;1.90;1.75;;;;;;;11.91;61.27;100272.13;5090270;28;20088;-79
2022/05/10 04:33:23;;;;;;;;;;;;;;;11.91;62.55;100298.56;5088783;28;20036;-81
2022/05/10 04:35:49;;;;;;;1.35;1.35;;;;;;;12.11;61.62;100305.41;5101243;28;20006;-81
2022/05/10 04:38:14;;;;;;;;;;;;;;;12.23;61.07;100310.56;5092627;28;20055;-81
2022/05/10 04:43:24;;;;;;;1.73;1.55;;;;;;;12.59;59.86;100287.19;5087021;28;19926;-81
2022/05/10 04:45:49;;;;;;;;;;;;;;;12.81;58.81;100308.91;5093069;28;20495;-82
2022/05/10 04:48:14;;;;;;;;;;;;;;;12.99;59.87;100306.88;5086731;28;20682;-81
2022/05/10 04:50:40;;;;;;;0.88;0.88;;;;;;;13.13;58.75;100299.63;5086187;28;19981;-83
2022/05/10 04:53:05;;;;;;;;;;;;;;;13.43;58.01;100310.63;5097472;28;20043;-83
2022/05/10 04:55:30;;;;;;;1.05;0.85;;;;;;;13.71;57.10;100308.38;5088469;28;19912;-84
2022/05/10 04:57:56;;;;;;;;;;;;;;;13.86;56.12;100314.31;5101189;28;20044;-82
2022/05/10 05:00:21;;;;;;;;;;;;;;;13.96;55.57;100310.56;5095489;28;19955;-81
2022/05/10 05:02:47;;;;;;;1.03;0.70;;;;;;;14.11;55.16;100312.06;5102359;28;19919;-82
2022/05/10 05:05:13;;;;;;;;;;;;;;;13.94;56.87;100312.38;5069034;28;20290;-80
2022/05/10 05:07:39;;;;;;;2.90;1.17;;;;;;;13.98;56.41;100298.16;5086340;28;19959;-84
2022/05/10 05:10:05;;;;;;;;;;;;;;;14.59;55.91;100311.06;5107417;28;20534;-83
2022/05/10 05:12:33;;;;;;;7.60;2.72;;;;;;;14.64;54.71;100299.50;5090508;28;19927;-83
2022/05/10 05:15:01;;;;;;;2.13;1.10;;;;;;;14.97;56.77;100306.72;5087509;28;20566;-84
2022/05/10 05:17:26;;;;;;;3.47;1.88;;;;;;;15.25;54.32;100298.09;5100409;28;20024;-85
2022/05/10 05:19:52;;;;;;;;;;;;;;;15.36;53.01;100307.53;5085757;28;20043;-86
2022/05/10 05:22:17;;;;;;;2.38;1.67;;;;;;;15.50;53.27;100301.88;5097119;28;19923;-86
2022/05/10 05:24:42;;;;;;;;;;;;;;;15.33;53.55;100304.09;5096143;28;20024;-83
2022/05/10 05:27:08;;;;;;;2.58;1.33;;;;;;;15.12;53.93;100274.47;5091315;28;20308;-84
2022/05/10 05:29:34;;;;;;;1.88;1.35;;;;;;;15.55;53.39;100284.03;5091266;28;20394;-83
2022/05/10 05:32:03;;;;;;;;;;;;;;;15.65;53.47;100300.59;5102245;28;20043;-83
2022/05/10 05:34:29;;;;;;;2.90;2.22;;;;;;;16.04;52.96;100307.56;5090538;28;19916;-84
2022/05/10 05:39:38;;;;;;;7.35;2.47;;;;;;;15.36;53.81;100291.56;5109099;28;20046;-83
2022/05/10 05:42:04;;;;;;;2.60;1.98;;;;;;;15.75;54.13;100310.09;5106930;28;20048;-82
2022/05/10 05:44:29;;;;;;;;;;;;;;;15.40;53.82;100303.03;5095504;28;20028;-83
2022/05/10 05:46:57;;;;;;;4.03;2.65;;;;;;;15.84;53.77;100301.00;5092499;28;19931;-85
2022/05/10 05:49:25;;;;;;;2.72;1.60;;;;;;;15.77;53.68;100286.16;5090128;28;20131;-83
2022/05/10 05:51:58;;;;;;;2.28;2.08;;;;;;;15.94;53.59;100261.72;5094417;28;20120;-82
2022/05/10 05:54:24;;;;;;;1.98;1.65;;;;;;;16.58;52.55;100301.56;5072388;28;20421;-83
2022/05/10 05:56:50;;;;;;;4.50;2.05;;;;;;;17.25;51.64;100289.72;5071215;28;20044;-83
2022/05/10 05:59:15;;;;;;;;;;;;;;;17.57;51.24;100308.25;5089912;28;20111;-83
2022/05/10 06:01:40;;;;;;;2.83;2.13;;;;;;;17.70;49.08;100291.75;5089346;28;20385;-83
2022/05/10 06:04:07;;;;;;;3.05;2.63;;;;;;;17.68;49.70;100284.72;5071231;28;20028;-81
2022/05/10 06:06:32;;;;;;;2.95;2.13;;;;;;;17.82;49.50;100265.56;5092910;28;20047;-82
2022/05/10 06:08:58;;;;;;;2.60;1.95;;;;;;;18.18;49.59;100278.50;5109932;28;20062;-82
2022/05/10 06:11:23;;;;;;;6.38;3.20;;;;;;;17.87;47.24;100298.28;5109753;28;20494;-83
2022/05/10 06:13:49;;;;;;;2.55;1.83;;;;;;;18.00;47.89;100280.06;5109873;28;20446;-83
2022/05/10 06:16:14;;;;;;;2.15;1.65;;;;;;;18.67;46.53;100298.00;5096063;28;20102;-83
2022/05/10 06:18:42;;;;;;;2.50;2.03;;;;;;;18.17;46.27;100285.66;5089236;28;20782;-83
2022/05/10 06:21:07;;;;;;;3.15;1.30;;;;;;;18.27;45.95;100304.88;5089354;28;20034;-83
2022/05/10 06:23:33;;;;;;;2.38;1.60;;;;;;;18.48;45.62;100299.66;5088185;28;20107;-83
2022/05/10 06:25:58;;;;;;;2.67;2.38;;;;;;;18.92;45.07;100297.97;5088397;28;20027;-84
2022/05/10 06:28:24;;;;;;;4.22;2.40;;;;;;;18.48;43.77;100270.28;5088912;28;20036;-82
2022/05/10 06:30:49;;;;;;;3.35;2.35;;;;;;;18.16;46.15;100301.72;5089036;28;20081;-82
2022/05/10 06:33:16;;;;;;;3.97;1.42;;;;;;;18.51;46.36;100273.69;5088273;28;20028;-83
2022/05/10 06:35:43;;;;;;;1.80;1.38;;;;;;;19.24;44.06;100287.75;5070412;28;20463;-82
2022/05/10 06:38:19;;;;;;;1.02;0.93;;;;;;;19.28;42.97;100289.38;5089061;28;20032;-81
2022/05/10 06:40:47;;;;;;;1.48;1.25;;;;;;;18.97;43.75;100279.06;5089134;28;20142;-81
2022/05/10 06:43:12;;;;;;;4.43;1.35;;;;;;;19.24;41.59;100278.84;5089242;28;20048;-81
2022/05/10 06:45:40;;;;;;;3.28;2.45;;;;;;;19.42;40.35;100256.69;5088842;28;20036;-81
2022/05/10 06:48:06;;;;;;;5.03;2.30;;;;;;;19.71;40.73;100270.63;5088908;28;20032;-81
2022/05/10 06:50:32;;;;;;;2.15;1.88;;;;;;;19.26;41.06;100259.16;5088915;28;20039;-81
2022/05/10 06:52:59;;;;;;;2.63;1.65;;;;;;;19.21;41.91;100269.16;5088935;28;20032;-82
2022/05/10 06:55:29;;;;;;;1.67;1.30;;;;;;;19.23;40.07;100271.75;5089092;28;20032;-81
2022/05/10 06:57:55;;;;;;;1.60;1.50;;;;;;;19.33;40.23;100265.09;5088705;28;20039;-82
2022/05/10 07:00:21;;;;;;;3.85;1.65;;;;;;;19.47;39.93;100278.75;5088348;28;20036;-81
2022/05/10 07:02:47;;;;;;;2.53;2.33;;;;;;;19.17;39.39;100253.28;5088402;28;20028;-83
2022/05/10 07:05:14;;;;;;;1.20;0.75;;;;;;;20.03;40.91;100261.19;5088427;28;20040;-83
2022/05/10 07:07:40;;;;;;;3.50;1.67;;;;;;;20.62;41.37;100279.03;5088457;28;20032;-82
2022/05/10 07:10:10;;;;;;;3.50;2.05;;;;;;;20.88;37.95;100275.13;5088358;28;20027;-82
2022/05/10 07:12:40;;;;;;;4.47;0.82;;;;;;;21.17;36.72;100284.44;5087918;28;20117;-81
2022/05/10 07:15:09;;;;;;;2.15;1.40;;;;;;;20.84;37.26;100262.84;5068991;28;21059;-84
2022/05/10 07:17:35;;;;;;;1.58;1.27;;;;;;;21.21;38.83;100286.03;5088521;28;20038;-83
2022/05/10 07:20:02;;;;;;;2.05;1.30;;;;;;;21.33;39.09;100264.88;5087956;28;20445;-83
2022/05/10 07:22:28;;;;;;;0.93;0.73;;;;;;;21.92;39.98;100263.63;5088365;28;20162;-84
2022/05/10 07:24:54;;;;;;;3.35;1.90;;;;;;;22.22;34.56;100262.06;5087867;28;20123;-84
2022/05/10 07:27:19;;;;;;;3.50;1.52;;;;;;;21.89;37.55;100277.22;5087723;28;20123;-84
2022/05/10 07:29:45;;;;;;;5.30;1.42;;;;;;;22.77;36.29;100274.28;5087734;28;20036;-84
2022/05/10 07:32:12;;;;;;;2.53;1.65;;;;;;;22.55;35.49;100258.50;5088099;28;20443;-84
2022/05/10 07:34:38;;;;;;;2.78;1.40;;;;;;;22.78;36.25;100268.81;5088013;28;21512;-84
2022/05/10 07:37:03;;;;;;;3.35;1.35;;;;;;;22.87;33.45;100237.84;5085144;28;20114;-84
2022/05/10 07:39:29;;;;;;;0.70;0.70;;;;;;;23.52;33.24;100252.91;5108540;28;20039;-84
2022/05/10 07:41:54;;;;;;;3.25;0.90;;;;;;;23.65;34.42;100245.84;5107574;28;20047;-84
2022/05/10 07:44:22;;;;;;;5.43;4.05;;;;;;;23.64;32.68;100260.25;5101180;28;20051;-84
2022/05/10 07:46:48;;;;;;;4.57;2.83;;;;;;;23.84;33.12;100258.19;5087935;28;20020;-84
2022/05/10 07:49:13;;;;;;;2.00;1.52;;;;;;;24.06;33.87;100257.75;5086174;28;20031;-84
2022/05/10 07:51:41;;;;;;;2.05;1.23;;;;;;;24.23;34.54;100235.97;5087354;28;20044;-84
2022/05/10 07:54:06;;;;;;;2.17;1.55;;;;;;;24.81;31.71;100269.16;5086897;28;20040;-84
2022/05/10 07:56:32;;;;;;;1.67;0.98;;;;;;;24.21;33.24;100245.16;5089726;28;20036;-84
2022/05/10 07:58:57;;;;;;;3.50;0.93;;;;;;;24.08;32.98;100251.31;5089589;28;20460;-83
2022/05/10 08:01:25;;;;;;;5.00;0.98;;;;;;;24.65;33.13;100226.13;5087384;28;20024;-84
2022/05/10 08:03:50;;;;;;;2.83;0.68;;;;;;;24.74;30.65;100258.88;5087512;28;20024;-84
2022/05/10 08:06:16;;;;;;;1.02;1.00;;;;;;;24.12;32.99;100239.34;5087501;28;20032;-84
2022/05/10 08:08:42;;;;;;;2.00;1.17;;;;;;;24.32;32.64;100248.00;5087097;28;20133;-84
2022/05/10 08:11:08;;;;;;;3.95;2.75;;;;;;;24.54;32.48;100236.72;5087316;28;20032;-84
2022/05/10 08:13:34;;;;;;;2.22;1.67;;;;;;;24.22;35.61;100231.56;5087653;28;20039;-84
2022/05/10 08:16:00;;;;;;;2.40;1.52;;;;;;;24.52;34.74;100262.06;5086624;28;20039;-84
2022/05/10 08:18:27;;;;;;;10.93;1.25;;;;;;;24.05;34.55;100242.53;5086829;28;20505;-84
2022/05/10 08:20:55;;;;;;;1.38;1.10;;;;;;;24.23;32.43;100243.22;5086825;28;20040;-84
2022/05/10 08:23:24;;;;;;;1.75;1.00;;;;;;;24.15;31.89;100254.47;5086392;28;20063;-83
2022/05/10 08:25:51;;;;;;;2.90;1.48;;;;;;;24.26;31.47;100240.31;5069306;28;20464;-84
2022/05/10 08:28:17;;;;;;;3.42;2.00;;;;;;;24.85;30.80;100248.22;5086854;28;20071;-84
2022/05/10 08:30:46;;;;;;;4.90;2.95;;;;;;;25.14;31.00;100237.34;5087287;28;20128;-84
2022/05/10 08:33:16;;;;;;;3.03;2.42;;;;;;;25.05;29.50;100235.25;5087120;28;20024;-84
2022/05/10 08:35:43;;;;;;;2.95;1.38;;;;;;;25.19;31.00;100241.47;5086312;28;20731;-84
2022/05/10 08:38:09;;;;;;;1.10;0.85;;;;;;;25.24;31.08;100226.75;5087313;28;20043;-83
2022/05/10 08:40:41;;;;;;;1.45;0.95;;;;;;;24.73;32.19;100233.72;5086306;28;20136;-83
2022/05/10 08:43:15;;;;;;;1.85;1.30;;;;;;;24.70;30.09;100238.44;5086923;28;20075;-83
2022/05/10 08:45:44;;;;;;;5.90;1.58;;;;;;;24.63;32.94;100217.25;5086288;28;20501;-83
2022/05/10 08:48:09;;;;;;;5.43;2.75;;;;;;;24.91;33.68;100237.03;5086609;28;20036;-84
2022/05/10 08:50:36;;;;;;;1.75;1.27;;;;;;;25.33;32.20;100228.88;5086203;28;20505;-84
2022/05/10 08:53:02;;;;;;;3.33;1.85;;;;;;;25.44;32.29;100237.13;5086229;28;20133;-83
2022/05/10 08:55:30;;;;;;;7.13;3.20;;;;;;;26.15;29.14;100228.63;5086952;28;20691;-83
2022/05/10 08:58:24;;;;;;;1.55;1.33;;;;;;;26.49;27.88;100235.13;5090206;28;20494;-83
2022/05/10 09:00:52;;;;;;;0.80;0.80;;;;;;;25.62;27.22;100218.75;5090880;28;20043;-83
2022/05/10 09:03:35;;;;;;;1.73;0.88;;;;;;;26.26;28.10;100218.78;5090739;28;20166;-83
2022/05/10 09:06:15;;;;;;;1.02;0.82;;;;;;;26.38;26.85;100206.19;5090838;28;20036;-83
2022/05/10 09:09:00;;;;;;;2.17;1.10;;;;;;;25.88;28.36;100230.44;5091095;28;20502;-83
2022/05/10 09:11:35;;;;;;;1.98;1.00;;;;;;;25.45;28.30;100230.72;5090348;28;20039;-83
2022/05/10 09:14:00;;;;;;;0.30;0.30;;;;;;;25.23;28.40;100235.84;5091089;28;20024;-83
2022/05/10 09:16:26;;;;;;;0.73;0.40;;;;;;;25.26;27.33;100219.44;5089937;28;20077;-83
2022/05/10 09:18:52;;;;;;;0.85;0.68;;;;;;;25.47;29.83;100209.91;5071594;28;20093;-83
2022/05/10 09:21:33;;;;;;;1.52;1.17;;;;;;;25.57;29.96;100225.47;5090502;28;20075;-83
2022/05/10 09:24:20;;;;;;;0.47;0.47;;;;;;;25.81;31.15;100226.47;5090125;28;20405;-83
2022/05/10 09:26:48;;;;;;;3.85;0.60;;;;;;;25.48;29.17;100214.31;5090667;28;20047;-83
2022/05/10 09:29:27;;;;;;;0.98;0.50;;;;;;;26.03;29.39;100204.22;5089642;28;20039;-83
2022/05/10 09:34:46;;;;;;;1.27;0.60;;;;;;;26.36;28.22;100178.41;5090306;28;20074;-84
2022/05/10 09:37:26;;;;;;;1.27;0.85;;;;;;;26.43;27.94;100200.44;5103664;28;20588;-85
2022/05/10 09:39:57;;;;;;;0.32;0.32;;;;;;;26.04;25.99;100202.34;5113988;28;20030;-84
2022/05/10 09:42:33;;;;;;;1.10;1.00;;;;;;;26.06;24.82;100181.50;5110589;28;20047;-84
2022/05/10 09:45:12;;;;;;;1.65;0.70;;;;;;;25.87;23.44;100184.63;5110661;28;20059;-85
2022/05/10 09:47:39;;;;;;;0.85;0.40;;;;;;;26.39;23.59;100193.53;5098488;28;20039;-84
2022/05/10 09:50:13;;;;;;;0.98;0.50;;;;;;;26.54;26.37;100196.94;5096786;28;20036;-85
2022/05/10 09:52:38;;;;;;;0.68;0.50;;;;;;;26.82;23.31;100168.72;5090215;28;20035;-85
2022/05/10 09:55:15;;;;;;;0.65;0.57;;;;;;;26.22;25.03;100175.84;5089996;28;20024;-84
2022/05/10 09:57:42;;;;;;;0.20;0.20;;;;;;;26.50;23.21;100181.94;5090202;28;20032;-83
2022/05/10 10:00:14;;;;;;;0.95;0.25;;;;;;;26.54;24.19;100176.19;5090079;28;20031;-84
2022/05/10 10:02:41;;;;;;;0.30;0.30;;;;;;;26.15;24.75;100182.66;5089077;28;20127;-84
2022/05/10 10:05:28;;;;;;;0.47;0.22;;;;;;;26.27;23.79;100169.13;5089784;28;20533;-84
2022/05/10 10:07:56;;;;;;;1.65;1.02;;;;;;;26.33;22.77;100170.50;5084404;28;20054;-85
2022/05/10 10:10:34;;;;;;;0.80;0.73;;;;;;;25.81;24.38;100161.63;5110124;28;20070;-84
2022/05/10 10:13:20;;;;;;;0.35;0.30;;;;;;;26.04;22.92;100164.53;5109367;28;20036;-84
2022/05/10 10:15:46;;;;;;;0.35;0.30;;;;;;;26.02;22.58;100158.38;5109658;28;20114;-83
2022/05/10 10:18:32;;;;;;;1.45;0.65;;;;;;;26.77;21.40;100170.91;5109323;28;20118;-85
2022/05/10 10:20:58;;;;;;;0.30;0.20;;;;;;;26.39;23.24;100129.50;5109786;28;20039;-85
2022/05/10 10:23:36;;;;;;;0.25;0.25;;;;;;;26.77;24.35;100165.50;5109817;28;20027;-85
2022/05/10 10:26:24;;;;;;;0.32;0.32;;;;;;;26.69;23.66;100152.53;5091413;28;20051;-86
2022/05/10 10:28:56;;;;;;;0.50;0.20;;;;;;;26.40;22.56;100142.03;5109520;28;20039;-85
2022/05/10 10:31:28;;;;;;;1.27;0.60;;;;;;;25.90;21.71;100128.53;5110001;28;20080;-85
2022/05/10 10:34:24;;;;;;;1.02;0.75;;;;;;;25.96;23.42;100127.22;5109537;28;20028;-85
2022/05/10 10:37:16;;;;;;;1.23;0.17;;;;;;;26.06;22.61;100114.78;5109449;28;20081;-86
2022/05/10 10:40:03;;;;;;;0.52;0.35;;;;;;;25.92;21.40;100133.84;5109491;28;20034;-85
2022/05/10 10:42:52;;;;;;;1.05;0.30;;;;;;;26.16;20.91;100143.84;5109379;28;20061;-84
2022/05/10 10:45:32;;;;;;;0.35;0.30;;;;;;;25.63;22.10;100109.75;5109320;28;20035;-87
2022/05/10 10:48:10;;;;;;;0.32;0.20;;;;;;;25.01;22.54;100129.34;5109077;28;20039;-87
2022/05/10 10:50:36;;;;;;;0.60;0.30;;;;;;;25.07;21.90;100098.38;5109520;28;20095;-87
2022/05/10 10:53:06;;;;;;;0.70;0.40;;;;;;;25.29;20.73;100124.78;5109198;28;20104;-86
2022/05/10 10:55:43;;;;;;;0.17;0.10;;;;;;;25.88;19.54;100129.59;5108984;28;20039;-85
2022/05/10 10:58:40;;;;;;;0.10;0.10;;;;;;;25.77;20.32;100114.16;5109091;28;20031;-85
2022/05/10 11:01:23;;;;;;;0.38;0.20;;;;;;;25.92;21.62;100104.97;5109079;28;20489;-85
2022/05/10 11:04:18;;;;;;;0.40;0.30;;;;;;;25.87;19.83;100103.56;5109142;28;20088;-87
2022/05/10 11:06:51;;;;;;;;;;;;;;;25.32;21.95;100116.47;5104411;28;20024;-85
2022/05/10 11:09:46;;;;;;;0.47;0.20;;;;;;;25.37;21.09;100100.81;5088859;28;19916;-87
2022/05/10 11:12:29;;;;;;;;;;;;;;;25.41;21.40;100113.13;5032947;28;20053;-86
2022/05/10 11:15:23;;;;;;;0.98;0.20;;;;;;;25.40;21.80;100107.84;5087613;28;19922;-87
2022/05/10 11:18:14;;;;;;;0.10;0.08;;;;;;;25.25;20.50;100115.97;5088896;28;20069;-88
2022/05/10 11:20:52;;;;;;;0.32;0.22;;;;;;;25.16;21.36;100106.72;5086971;28;20060;-87
2022/05/10 11:23:34;;;;;;;0.40;0.20;;;;;;;25.46;20.53;100104.69;5088166;28;20032;-87
2022/05/10 11:26:18;;;;;;;0.17;0.17;;;;;;;25.88;21.18;100105.28;5088265;28;20032;-87
2022/05/10 11:29:11;;;;;;;0.30;0.10;;;;;;;25.32;20.59;100089.47;5087754;28;20105;-88
2022/05/10 11:31:55;;;;;;;0.30;0.30;;;;;;;25.16;22.78;100109.41;5070034;28;20465;-89
2022/05/10 11:34:59;;;;;;;0.25;0.20;;;;;;;25.07;21.88;100069.56;5088369;28;20040;-88
2022/05/10 11:37:52;;;;;;;1.17;0.30;;;;;;;25.45;22.54;100084.06;5087431;28;20039;-86
2022/05/10 11:40:56;;;;;;;2.17;0.15;;;;;;;25.65;21.30;100074.53;5084355;28;20028;-86
2022/05/10 11:43:30;;;;;;;1.10;0.50;;;;;;;25.57;20.73;100083.19;5074180;28;20055;-87
2022/05/10 11:46:01;;;;;;;0.68;0.35;;;;;;;25.52;19.59;100086.22;5087370;28;20032;-87
2022/05/10 11:48:29;;;;;;;0.95;0.40;;;;;;;25.55;20.97;100075.19;5087469;28;20066;-88
2022/05/10 11:54:16;;;;;;;0.10;0.10;;;;;;;25.19;21.20;100084.91;5087248;28;20115;-87
2022/05/10 11:56:44;;;;;;;0.82;0.43;;;;;;;25.34;21.92;100033.53;5087646;28;20028;-86
2022/05/10 11:59:31;;;;;;;0.50;0.40;;;;;;;25.54;18.62;100040.19;5087249;28;20039;-86
2022/05/10 12:01:58;;;;;;;1.05;0.43;;;;;;;25.15;19.57;100025.84;5091980;28;20081;-87
2022/05/10 12:04:43;;;;;;;0.15;0.15;;;;;;;25.65;22.31;100059.19;5079132;28;20027;-86
2022/05/10 12:07:20;;;;;;;0.45;0.43;;;;;;;25.91;21.10;100059.97;5087480;28;20035;-86
2022/05/10 12:09:52;;;;;;;1.15;0.60;;;;;;;25.89;21.10;100051.13;5087226;28;20032;-85
2022/05/10 12:12:33;;;;;;;0.30;0.30;;;;;;;26.02;20.25;100040.31;5087554;28;20036;-85